»·PEaware :: N18369 KSBA-KBUR

N18369 :: KSBA-KBUR

FLIGHT INFORMATION

Flight Status: Arrived
Operator: Privately registered:
United States
More flights under this callsign
Pilot: Donald G. (25569)
Aircraft: BEECH AIRCRAFT BONANZA
(BE35)
More flights by this aircraft type
Origin: KSBA Santa Barbara Mun
United States
Destination: KBUR Bob Hope-Burbank
United States
More flights between these airports :: More routes between these airports
Route: +
File this flight plan on PilotEdge
Remarks:
Altitude:
(Current/Filed)
5,500ft
Speed:
(Current/Filed)
0kts
Departed: 14-Jan-20 01:06 PM
Arrived: 14-Jan-20 01:36 PM
Distance/Time
Traveled:
75nm/0:30
Distance/Time
To Go:
Arrived

Flight Plot

Page will automatically refresh every two minutes.


Map Options




Map Legend


Flown Route
Filed Route
Departure Airport
Arrival Airport
Navaid (VOR, NDB)
Fix

Horizontal Profiles

Position Reports

Time Latitude Longitude Heading Altitude Ground
Speed
14-Jan-20 12:53 34.432346 -119.836011 70 13ft 0kts
14-Jan-20 12:54 34.432347 -119.836009 70 13ft 0kts
14-Jan-20 12:55 34.432348 -119.836007 70 13ft 0kts
14-Jan-20 12:56 34.432133 -119.835732 148 13ft 2kts
14-Jan-20 12:57 34.432113 -119.835718 149 13ft 0kts
14-Jan-20 12:58 34.432111 -119.835717 149 13ft 0kts
14-Jan-20 12:59 34.432106 -119.835713 149 13ft 0kts
14-Jan-20 13:00 34.432103 -119.835711 149 13ft 0kts
14-Jan-20 13:01 34.432101 -119.835710 149 13ft 0kts
14-Jan-20 13:02 34.432045 -119.835688 174 13ft 4kts
14-Jan-20 13:03 34.431079 -119.838542 250 13ft 5kts
14-Jan-20 13:04 34.430716 -119.839723 250 13ft 0kts
14-Jan-20 13:05 34.427422 -119.839315 164 13ft 65kts
14-Jan-20 13:06 34.402505 -119.832455 166 1018ft 101kts
14-Jan-20 13:07 34.371227 -119.823668 164 1461ft 140kts
14-Jan-20 13:08 34.349953 -119.786591 98 1569ft 150kts
14-Jan-20 13:09 34.345607 -119.739848 90 2279ft 135kts
14-Jan-20 13:10 34.341017 -119.693108 89 3095ft 137kts
14-Jan-20 13:11 34.336458 -119.647143 89 4091ft 138kts
14-Jan-20 13:12 34.331857 -119.601269 90 5070ft 137kts
14-Jan-20 13:14 34.326944 -119.551962 91 5464ft 162kts
14-Jan-20 13:15 34.321217 -119.495829 92 5466ft 171kts
14-Jan-20 13:16 34.315380 -119.438566 92 5467ft 172kts
14-Jan-20 13:17 34.309450 -119.380764 92 5464ft 172kts
14-Jan-20 13:18 34.303639 -119.323797 92 5472ft 170kts
14-Jan-20 13:19 34.297794 -119.266968 93 5472ft 171kts
14-Jan-20 13:20 34.291759 -119.210078 93 5505ft 171kts
14-Jan-20 13:21 34.285856 -119.153405 93 5502ft 169kts
14-Jan-20 13:22 34.280018 -119.096068 93 5504ft 174kts
14-Jan-20 13:23 34.273951 -119.037888 94 5498ft 175kts
14-Jan-20 13:24 34.267826 -118.979010 94 5499ft 180kts
14-Jan-20 13:25 34.261478 -118.919138 94 5498ft 174kts
14-Jan-20 13:26 34.255325 -118.861241 95 5503ft 177kts
14-Jan-20 13:27 34.249021 -118.802251 95 5504ft 176kts
14-Jan-20 13:28 34.242530 -118.741898 95 5058ft 183kts
14-Jan-20 13:29 34.235965 -118.681266 96 4602ft 181kts
14-Jan-20 13:30 34.229564 -118.622114 96 3953ft 173kts
14-Jan-20 13:31 34.223677 -118.568119 96 3513ft 144kts
14-Jan-20 13:32 34.218457 -118.520185 97 3505ft 161kts
14-Jan-20 13:33 34.212532 -118.466397 97 3494ft 156kts
14-Jan-20 13:34 34.199019 -118.418717 91 2471ft 138kts
14-Jan-20 13:34 34.198283 -118.388861 90 1537ft 83kts
14-Jan-20 13:36 34.197805 -118.361202 89 781ft 21kts
14-Jan-20 13:37 34.198579 -118.360307 359 781ft 0kts
14-Jan-20 13:37 34.199111 -118.360298 1 781ft 10kts
14-Jan-20 13:39 34.200180 -118.360055 75 781ft 0kts
14-Jan-20 13:39 34.200180 -118.360054 75 781ft 0kts
14-Jan-20 13:40 34.200180 -118.360053 75 781ft 0kts
14-Jan-20 13:42 34.200181 -118.360051 75 781ft 0kts
14-Jan-20 13:42 34.200181 -118.360051 75 781ft 0kts
14-Jan-20 13:43 34.200181 -118.360048 75 781ft 0kts
14-Jan-20 13:44 34.200182 -118.360046 75 781ft 0kts
14-Jan-20 13:45 34.200182 -118.360045 75 781ft 0kts
14-Jan-20 13:46 34.200182 -118.360045 75 781ft 0kts
14-Jan-20 13:47 34.200182 -118.360045 75 781ft 0kts
14-Jan-20 13:48 34.200182 -118.360045 75 781ft 0kts
14-Jan-20 13:49 34.200182 -118.360045 75 781ft 0kts

Navigation Log

Ident Type
Flight plan parsing failed, navigation log unavailable